• Join FlightAware (Why Join?)
  • Login
  • US Flag 
08:18AM EDT


 

Airport Tracker/Info


-or-


 

Live Flight TrackerFlight Track Log ✈ LYM810A ✈ 17-May-2013 ✈ KDEN - KDDC

Flight Track Log - Related Links

Times and Time Zones

All times are in EDT time to prevent confusion due to time zone crossing. See the LYM810A flight status page for this flight to view local times or setup timezone preferences in your user account.

Time Position Orientation Groundspeed Altitude Reporting Facility
EDT Latitude Longitude Course Direction KTS MPH feet Rate Location/Type
07:50AM 39.8000 -104.6167 108° East 176 203 6,900  Level Denver TRACON
07:51AM 39.7789 -104.5664 119° Southeast 179 206 8,200 1,200 Climbing Denver Center
07:52AM 39.7569 -104.5092 116° Southeast 178 205 9,300 900 Climbing Denver Center
07:53AM 39.7439 -104.4389 104° East 200 230 10,100 780 Climbing Denver Center
07:54AM 39.7292 -104.3639 104° East 214 246 10,900 840 Climbing Denver Center
07:55AM 39.6889 -104.2223 108° East  Level FlightAware Approximate
07:55AM 39.7133 -104.2872 105° East 220 253 11,800  Level Denver Center
07:56AM 39.6911 -104.2061 110° East 222 255 12,600 540 Climbing Denver Center
07:57AM 39.6714 -104.1264 108° East 231 266 13,000 300 Climbing Denver Center
07:58AM 39.6489 -104.0386 108° East 254 292 13,300 420 Climbing Denver Center
07:59AM 39.6256 -103.9558 110° East 246 283 13,900 720 Climbing Denver Center
08:00AM 39.6028 -103.8744 110° East 241 277 14,800 780 Climbing Denver Center
08:01AM 39.5839 -103.7942 107° East 235 270 15,500 600 Climbing Denver Center
08:02AM 39.5658 -103.7178 107° East 237 273 16,100 660 Climbing Denver Center
08:03AM 39.5453 -103.6364 108° East 237 273 16,900 720 Climbing Denver Center
08:04AM 39.5244 -103.5433 106° East 240 276 17,600 540 Climbing Denver Center
08:05AM 39.5042 -103.4647 108° East 240 276 18,100 540 Climbing Denver Center
08:06AM 39.4828 -103.3836 109° East 246 283 18,700 360 Climbing Denver Center
08:07AM 39.4611 -103.2883 106° East 247 284 18,900 120 Climbing Denver Center
08:08AM 39.4397 -103.2019 108° East 258 297 19,000  Climbing Denver Center
08:09AM 39.4178 -103.1128 108° East 268 308 19,000  Level Denver Center
08:10AM 39.3919 -103.0247 111° Southeast 273 314 19,000  Level Denver Center
08:11AM 39.3608 -102.9203 111° Southeast 277 319 19,000  Level Denver Center
08:12AM 39.3361 -102.8297 109° East 279 321 19,000  Level Denver Center
08:13AM 39.3158 -102.7386 106° East 277 319 19,000  Level Denver Center
08:14AM 39.2908 -102.6411 108° East 278 320 19,000  Level Denver Center
08:15AM 39.2597 -102.5361 111° Southeast 280 322 19,000  Level Denver Center
08:16AM 39.2408 -102.4594 108° East 281 323 19,000  Level Denver Center
08:17AM 39.2153 -102.3544 107° East 277 319 19,000  Level Denver Center
08:18AM 39.1928 -102.2633 108° East 278 320 19,000  Level Denver Center
08:19AM 39.1628 -102.1603 111° Southeast 277 319 19,000  Level Denver Center
08:20AM 39.1358 -102.0722 112° Southeast 275 316 19,000  Level Denver Center
08:21AM 39.0983 -101.9886 120° Southeast 279 321 19,000  Level Denver Center
08:22AM 39.0331 -101.9203 141° Southeast 272 313 19,000 -480 Level Denver Center
08:23AM 38.9767 -101.8544 138° Southeast 285 328 18,100 -1,080 Descending Denver Center
08:24AM 38.9150 -101.7844 139° Southeast 306 352 16,900 -1,200 Descending Denver Center
08:25AM 38.8414 -101.7061 140° Southeast 309 356 15,700 -1,140 Descending Denver Center
08:26AM 38.7817 -101.6342 137° Southeast 308 354 14,700 -1,020 Descending Denver Center
08:27AM 38.7222 -101.5664 138° Southeast 303 349 13,700 -960 Descending Denver Center
08:28AM 38.6633 -101.4997 139° Southeast 297 342 12,800 -1,080 Descending Denver Center
08:29AM 38.5961 -101.4269 140° Southeast 288 331 11,600 -960 Descending Denver Center
08:30AM 38.5381 -101.3683 142° Southeast 282 325 10,900 -840 Descending Denver Center
08:31AM 38.4767 -101.3042 141° Southeast 266 306 10,000 -840 Descending Denver Center
08:32AM 38.4256 -101.2528 142° Southeast 254 292 9,300 -480 Descending Denver Center
08:33AM 38.3731 -101.2056 145° Southeast 247 284 9,100 -180 Descending Denver Center
08:34AM 38.3125 -101.1581 148° Southeast 236 272 9,000 -60 Descending Denver Center
08:35AM 38.2628 -101.1181 148° Southeast 227 261 9,000  Level Denver Center
08:36AM 38.2086 -101.0672 144° Southeast 220 253 9,000  Level Denver Center
08:37AM 38.1633 -101.0189 140° Southeast 220 253 9,000  Level Denver Center
08:38AM 38.1144 -100.9686 141° Southeast 226 260 9,000  Level Denver Center
08:39AM 38.0567 -100.9067 140° Southeast 237 273 9,000  Level Denver Center
08:40AM 38.0117 -100.8500 135° Southeast 238 274 9,000 -300 Level Denver Center
08:41AM 37.9792 -100.7822 121° Southeast 239 275 8,400 -480 Descending Kansas City Center
08:42AM 37.9569 -100.6900 107° East 244 281 8,100 -180 Descending Kansas City Center
08:43AM 37.9428 -100.6128 103° East 239 275 8,100 -480 Level Kansas City Center
08:44AM 37.9297 -100.5358 102° East 235 270 7,200 -960 Descending Kansas City Center
08:45AM 37.9172 -100.4467 100° East 232 267 6,200 -600 Descending Kansas City Center
08:46AM 37.9058 -100.3742 101° East 226 260 6,000 -60 Descending Kansas City Center
08:47AM 37.8942 -100.3106 103° East 210 242 6,100 -180 Climbing Kansas City Center
08:48AM 37.8828 -100.2417 102° East 190 219 5,700 -360 Descending Kansas City Center
08:49AM 37.8700 -100.1819 105° East 185 213 5,400 -300 Descending Kansas City Center